Meteorología y climatología de Navarra
Datos de la estación - Meteo Navarra

Estación de Yesa GN

Altitud 487 m.


Datos desde el 09/11/2019 hasta el 10/11/2019 en horario solar
Los datos son PROVISIONALES

Anterior Página 1 de 1 Siguiente Descargar: Formato para Excel 2000 o superior   Formato csv   Formato para OpenOffice Calc
Fecha Temperatura Humedad relativa Radiación global Insolación Precipitación Vel. viento 10 m Vel. viento 10 m Dir. viento 10 m
ºC % W/m² s l/m² m/s km/h º
09/11/2019 0:00 5.8 94 0.0 0 0.5 2.3 8.2 276
09/11/2019 0:10 5.9 93 0.0 0 0.4 2.0 7.3 275
09/11/2019 0:20 6.0 91 0.0 0 0.4 3.1 11.1 290
09/11/2019 0:30 5.9 89 0.0 0 0.1 4.2 15.2 301
09/11/2019 0:40 6.0 89 0.0 0 0.1 3.5 12.5 295
09/11/2019 0:50 6.0 87 0.0 0 0.1 3.0 10.7 282
09/11/2019 1:00 6.0 88 0.0 0 0.0 2.1 7.6 280
09/11/2019 1:10 6.1 89 0.0 0 0.2 2.8 10.2 294
09/11/2019 1:20 6.0 89 0.0 0 0.0 2.1 7.5 285
09/11/2019 1:30 5.9 89 0.0 0 0.1 1.6 5.7 288
09/11/2019 1:40 5.9 91 0.0 0 0.3 1.6 5.9 283
09/11/2019 1:50 5.7 91 0.0 0 0.0 2.0 7.2 273
09/11/2019 2:00 5.8 90 0.0 0 0.1 2.4 8.5 274
09/11/2019 2:10 6.0 89 0.0 0 0.0 2.6 9.3 282
09/11/2019 2:20 6.2 87 0.0 0 0.0 3.8 13.8 303
09/11/2019 2:30 6.2 88 0.0 0 0.0 2.8 10.2 287
09/11/2019 2:40 6.0 88 0.0 0 0.2 3.0 10.7 275
09/11/2019 2:50 6.3 85 0.0 0 0.5 4.0 14.3 306
09/11/2019 3:00 6.2 85 0.0 0 0.3 3.9 14.2 300
09/11/2019 3:10 6.2 84 0.0 0 0.1 3.2 11.6 277
09/11/2019 3:20 6.2 84 0.0 0 0.0 2.9 10.3 303
09/11/2019 3:30 6.3 82 0.0 0 0.0 3.4 12.1 294
09/11/2019 3:40 6.2 85 0.0 0 0.0 2.0 7.1 280
09/11/2019 3:50 6.0 87 0.0 0 0.1 2.7 9.8 287
09/11/2019 4:00 5.8 88 0.0 0 0.1 2.5 9.1 293
09/11/2019 4:10 6.2 87 0.0 0 0.0 2.8 10.0 286
09/11/2019 4:20 6.2 86 0.0 0 0.2 3.0 10.6 306
09/11/2019 4:30 6.2 85 0.0 0 0.0 2.5 9.1 302
09/11/2019 4:40 6.2 86 0.0 0 0.1 2.8 10.1 296
09/11/2019 4:50 6.3 85 0.0 0 0.0 2.4 8.6 292
09/11/2019 5:00 6.4 85 0.0 0 0.0 2.1 7.5 290
09/11/2019 5:10 6.5 85 0.0 0 0.0 1.6 5.6 271
09/11/2019 5:20 6.2 86 0.0 0 0.0 2.2 7.7 270
09/11/2019 5:30 6.0 89 0.0 0 0.1 1.9 6.8 264
09/11/2019 5:40 5.9 90 0.0 0 0.0 2.2 8.0 266
09/11/2019 5:50 5.9 91 0.0 0 0.0 2.1 7.5 269
09/11/2019 6:00 6.1 91 0.0 0 0.0 2.9 10.4 267
09/11/2019 6:10 6.1 92 0.0 0 0.1 1.8 6.4 260
09/11/2019 6:20 5.8 94 0.0 0 0.2 1.8 6.3 272
09/11/2019 6:30 5.6 95 0.0 0 0.0 1.6 5.9 264
09/11/2019 6:40 5.6 95 0.0 0 0.0 2.0 7.2 261
09/11/2019 6:50 5.6 95 0.0 0 0.0 1.5 5.5 266
09/11/2019 7:00 5.5 95 0.0 0 0.0 1.6 5.7 269
09/11/2019 7:10 5.5 96 0.0 0 0.1 1.2 4.3 280
09/11/2019 7:20 5.6 95 14.2 2 0.1 1.3 4.8 267
09/11/2019 7:30 5.7 95 20.3 0 0.0 0.9 3.3 274
09/11/2019 7:40 5.9 96 24.1 0 0.0 2.3 8.3 304
09/11/2019 7:50 5.9 97 36.2 0 0.0 2.1 7.5 318
09/11/2019 8:00 6.0 97 49.6 0 0.0 1.9 6.7 310
09/11/2019 8:10 6.1 96 72.1 0 0.0 1.9 6.8 295
09/11/2019 8:20 6.2 96 110.0 318 0.0 1.7 6.2 307
09/11/2019 8:30 6.5 96 85.8 72 0.0 1.3 4.8 320
09/11/2019 8:40 6.4 95 45.8 0 0.0 0.6 2.2 275
09/11/2019 8:50 6.4 95 53.9 0 0.0 1.6 5.8 307
09/11/2019 9:00 6.5 96 52.8 0 0.0 2.1 7.5 314
09/11/2019 9:10 6.5 96 75.2 0 0.0 2.1 7.6 328
09/11/2019 9:20 6.8 95 101.3 0 0.0 1.9 6.7 307
09/11/2019 9:30 7.0 95 119.3 0 0.0 0.4 1.3 330
09/11/2019 9:40 7.3 94 91.8 0 0.0 1.1 3.9 311
09/11/2019 9:50 7.5 94 213.2 218 0.0 0.5 1.9 328
09/11/2019 10:00 7.9 93 163.3 60 0.0 0.6 2.3 290
09/11/2019 10:10 8.4 93 351.9 464 0.0 0.8 2.9 218
09/11/2019 10:20 9.3 92 633.3 600 0.0 1.0 3.7 225
09/11/2019 10:30 9.4 84 393.8 360 0.0 1.8 6.3 270
09/11/2019 10:40 9.2 83 396.4 600 0.0 0.8 2.8 242
09/11/2019 10:50 9.7 85 438.0 600 0.0 0.9 3.2 217
09/11/2019 11:00 10.1 84 409.5 600 0.0 2.2 7.8 202
09/11/2019 11:10 9.8 83 222.1 142 0.0 1.7 6.0 208
09/11/2019 11:20 9.4 83 232.3 62 0.0 2.1 7.6 199
09/11/2019 11:30 9.7 83 165.9 0 0.0 0.9 3.2 263
09/11/2019 11:40 9.6 82 170.7 0 0.0 1.0 3.6 249
09/11/2019 11:50 9.6 83 212.8 0 0.0 0.8 2.8 241
09/11/2019 12:00 9.7 82 244.9 0 0.0 0.7 2.6 232
09/11/2019 12:10 9.8 81 197.9 0 0.0 0.5 1.7 232
09/11/2019 12:20 9.9 80 150.0 0 0.0 0.8 2.8 214
09/11/2019 12:30 9.8 83 106.0 0 0.0 0.5 1.9 230
09/11/2019 12:40 9.5 84 116.2 0 0.1 0.5 1.8 269
09/11/2019 12:50 9.4 87 156.3 0 0.1 1.4 5.0 311
09/11/2019 13:00 9.5 86 132.4 0 0.0 1.2 4.2 291
09/11/2019 13:10 9.4 85 106.3 0 0.3 1.3 4.5 273
09/11/2019 13:20 9.3 86 155.3 0 0.1 0.5 1.9 258
09/11/2019 13:30 9.3 85 120.4 0 0.1 0.4 1.4 223
09/11/2019 13:40 9.1 86 109.3 0 0.0 0.5 1.9 284
09/11/2019 13:50 9.0 86 124.1 0 0.0 0.5 1.9 281
09/11/2019 14:00 9.0 86 109.4 0 0.0 0.4 1.5 283
09/11/2019 14:10 9.0 87 106.9 0 0.0 0.2 0.5 285
09/11/2019 14:20 9.1 85 138.9 0 0.0 0.2 0.7 208
09/11/2019 14:30 9.2 83 90.7 0 0.0 0.2 0.8 196
09/11/2019 14:40 9.0 84 53.6 0 0.0 0.8 2.8 306
09/11/2019 14:50 8.8 86 39.6 0 0.3 1.3 4.8 328
09/11/2019 15:00 8.7 88 48.8 0 0.2 0.7 2.6 9
09/11/2019 15:10 8.6 89 35.0 0 0.3 0.9 3.2 345
09/11/2019 15:20 8.4 90 30.4 0 0.4 0.9 3.2 353
09/11/2019 15:30 8.5 91 17.0 0 0.4 0.1 0.3 23
09/11/2019 15:40 8.5 90 7.8 0 0.1 0.1 0.3 241
09/11/2019 15:50 8.3 93 4.9 0 0.1 0.6 2.3 322
09/11/2019 16:00 8.2 93 7.1 0 0.1 0.4 1.3 185
09/11/2019 16:10 8.3 92 0.1 0 0.0 0.1 0.3 148
09/11/2019 16:20 8.1 94 0.0 0 0.1 0.3 1.2 328
09/11/2019 16:30 8.0 94 0.0 0 0.2 0.3 1.0 337
09/11/2019 16:40 8.0 95 0.0 0 0.2 0.3 1.1 260
09/11/2019 16:50 8.0 94 0.0 0 0.1 0.5 1.9 288
09/11/2019 17:00 7.9 94 0.0 0 0.0 0.6 2.0 286
09/11/2019 17:10 7.8 95 0.0 0 0.0 0.8 2.8 341
09/11/2019 17:20 7.7 96 0.0 0 0.2 1.1 3.9 7
09/11/2019 17:30 7.8 95 0.0 0 0.2 0.8 3.0 321
09/11/2019 17:40 8.0 95 0.0 0 0.2 0.5 1.9 301
09/11/2019 17:50 7.8 96 0.0 0 0.3 1.2 4.3 328
09/11/2019 18:00 7.8 96 0.0 0 0.3 1.1 4.1 304
09/11/2019 18:10 7.8 96 0.0 0 0.1 0.5 1.6 323
09/11/2019 18:20 7.7 96 0.0 0 0.3 1.2 4.2 287
09/11/2019 18:30 7.8 96 0.0 0 0.1 1.0 3.5 321
09/11/2019 18:40 7.7 97 0.0 0 0.1 1.0 3.4 344
09/11/2019 18:50 7.7 97 0.0 0 0.0 0.5 1.6 328
09/11/2019 19:00 7.8 96 0.0 0 0.0 0.6 2.1 331
09/11/2019 19:10 7.7 96 0.0 0 0.0 0.7 2.6 307
09/11/2019 19:20 7.7 96 0.0 0 0.3 0.9 3.3 299
09/11/2019 19:30 7.7 96 0.0 0 0.0 0.4 1.4 315
09/11/2019 19:40 7.6 95 0.0 0 0.0 0.5 1.7 278
09/11/2019 19:50 7.2 96 0.0 0 0.0 1.5 5.3 328
09/11/2019 20:00 7.2 97 0.0 0 0.0 2.4 8.5 325
09/11/2019 20:10 7.6 94 0.0 0 0.4 3.9 13.9 295
09/11/2019 20:20 8.2 87 0.0 0 0.8 3.8 13.6 300
09/11/2019 20:30 8.2 84 0.0 0 0.8 4.5 16.3 312
09/11/2019 20:40 8.0 84 0.0 0 0.3 4.0 14.4 323
09/11/2019 20:50 7.8 83 0.0 0 0.5 3.3 11.9 312
09/11/2019 21:00 7.5 84 0.0 0 0.4 3.6 12.9 324
09/11/2019 21:10 7.3 83 0.0 0 0.4 5.2 18.6 318
09/11/2019 21:20 7.2 83 0.0 0 0.1 3.2 11.6 296
09/11/2019 21:30 7.1 79 0.0 0 0.2 5.1 18.3 294
09/11/2019 21:40 6.7 81 0.0 0 0.7 5.1 18.3 309
09/11/2019 21:50 6.3 82 0.0 0 0.0 2.1 7.6 339
09/11/2019 22:00 6.1 85 0.0 0 0.0 1.9 6.7 295
09/11/2019 22:10 6.2 82 0.0 0 0.0 2.9 10.4 287
09/11/2019 22:20 6.3 81 0.0 0 0.3 3.1 11.3 254
09/11/2019 22:30 6.3 81 0.0 0 0.1 3.5 12.6 268
09/11/2019 22:40 6.4 79 0.0 0 0.0 3.3 12.0 283
09/11/2019 22:50 6.4 78 0.0 0 0.0 3.3 11.7 269
09/11/2019 23:00 6.2 78 0.0 0 0.0 3.1 11.3 253
09/11/2019 23:10 6.2 78 0.0 0 0.0 3.6 12.9 250
09/11/2019 23:20 6.3 75 0.0 0 0.0 3.9 13.9 268
09/11/2019 23:30 6.3 77 0.0 0 0.0 2.7 9.9 254
09/11/2019 23:40 6.0 78 0.0 0 0.0 2.3 8.3 251
09/11/2019 23:50 6.1 79 0.0 0 0.0 3.0 10.7 253
Anterior Página 1 de 1 Siguiente

NOTA: Tipo de datos según el color:
   - Valores diarios o 10 minutos correctos
   - Valores diarios calculados a partir de un número de datos 10 minutos menor que 144 y mayor que 120, o de un número de datos semihorarios menor que 48 y mayor que 40 (caso de las estaciones de Riegos de Navarra y del MARM)
   - Valores diez minutos estimados


Contacto        Enlaces        Aviso legal